createdAt,value
2022-10-26T00:01:52.727Z,15.10
2022-10-26T00:06:54.910Z,15.30
2022-10-26T00:11:56.975Z,15.10
2022-10-26T00:16:59.167Z,15.20
2022-10-26T00:22:01.382Z,15.20
2022-10-26T00:27:03.492Z,15.20
2022-10-26T00:32:06.651Z,15.20
2022-10-26T00:42:16.749Z,15.20
2022-10-26T00:47:35.615Z,15.20
2022-10-26T00:52:38.583Z,15.20
2022-10-26T00:57:41.474Z,15.20
2022-10-26T01:02:44.615Z,15.20
2022-10-26T01:07:47.968Z,15.20
2022-10-26T01:12:51.382Z,15.20
2022-10-26T01:18:15.465Z,15.20
2022-10-26T01:23:41.194Z,15.10
2022-10-26T01:29:01.270Z,15.20
2022-10-26T01:34:27.851Z,15.20
2022-10-26T01:39:53.868Z,15.20
2022-10-26T01:45:07.487Z,15.20
2022-10-26T01:50:11.454Z,15.30
2022-10-26T01:55:41.813Z,15.30
2022-10-26T02:00:55.656Z,15.30
2022-10-26T02:06:15.033Z,15.50
2022-10-26T02:11:30.921Z,15.30
2022-10-26T02:16:56.442Z,15.30
2022-10-26T02:22:07.259Z,15.40
2022-10-26T02:27:14.557Z,15.40
2022-10-26T02:32:18.615Z,15.40
2022-10-26T02:37:23.028Z,15.40
2022-10-26T02:42:26.851Z,15.40
2022-10-26T02:47:29.815Z,15.50
2022-10-26T02:52:44.194Z,15.50
2022-10-26T02:57:50.922Z,15.50
2022-10-26T03:02:57.266Z,15.50
2022-10-26T03:08:00.318Z,15.50
2022-10-26T03:13:03.622Z,15.60
2022-10-26T03:18:06.228Z,15.60
2022-10-26T03:23:08.362Z,15.60
2022-10-26T03:28:10.455Z,15.70
2022-10-26T03:33:13.170Z,15.60
2022-10-26T03:38:16.052Z,15.40
2022-10-26T03:43:18.397Z,15.70
2022-10-26T03:48:20.416Z,15.70
2022-10-26T03:53:22.415Z,15.80
2022-10-26T04:03:31.510Z,15.80
2022-10-26T04:08:33.594Z,15.80
2022-10-26T04:13:35.807Z,15.80
2022-10-26T04:18:37.867Z,15.80
2022-10-26T04:23:39.859Z,15.80
2022-10-26T04:28:41.896Z,15.70
2022-10-26T04:33:43.954Z,15.70
2022-10-26T04:38:48.005Z,15.70
2022-10-26T04:43:50.213Z,15.70
2022-10-26T04:48:52.314Z,15.70
2022-10-26T04:58:57.657Z,15.80
2022-10-26T05:03:59.706Z,15.80
2022-10-26T05:09:02.350Z,16.00
2022-10-26T05:14:04.510Z,15.90
2022-10-26T05:19:07.785Z,15.90
2022-10-26T05:24:11.704Z,15.90
2022-10-26T05:29:14.738Z,16.00
2022-10-26T05:34:16.786Z,16.00
2022-10-26T05:39:18.845Z,16.10
2022-10-26T05:44:20.877Z,16.10
2022-10-26T05:49:22.937Z,16.30
2022-10-26T05:54:25.166Z,16.10
2022-10-26T05:59:27.418Z,16.10
2022-10-26T06:04:38.749Z,16.10
2022-10-26T06:09:42.023Z,16.10
2022-10-26T06:14:44.507Z,16.10
2022-10-26T06:20:01.810Z,16.10
2022-10-26T06:25:38.594Z,16.20
2022-10-26T06:30:41.569Z,16.20
2022-10-26T06:36:05.730Z,16.20
2022-10-26T06:41:08.092Z,16.20
2022-10-26T06:46:43.626Z,16.20
2022-10-26T06:51:59.639Z,16.20
2022-10-26T06:57:02.049Z,16.20
2022-10-26T07:02:06.518Z,16.20
2022-10-26T07:07:18.013Z,16.20
2022-10-26T07:12:20.362Z,16.30
2022-10-26T07:17:22.477Z,16.30
2022-10-26T07:22:25.236Z,16.40
2022-10-26T07:27:27.197Z,16.50
2022-10-26T07:32:30.272Z,16.50
2022-10-26T07:37:32.431Z,16.50
2022-10-26T07:42:36.498Z,16.60
2022-10-26T07:47:38.773Z,16.60
2022-10-26T07:52:41.743Z,16.60
2022-10-26T07:57:43.866Z,16.70
2022-10-26T08:02:46.069Z,16.80
2022-10-26T08:07:48.624Z,16.90
2022-10-26T08:12:53.739Z,16.90
2022-10-26T08:17:55.889Z,17.10
2022-10-26T08:22:59.445Z,17.20
2022-10-26T08:28:03.380Z,17.30
2022-10-26T08:33:08.177Z,17.60
2022-10-26T08:38:10.256Z,17.60
2022-10-26T08:43:17.590Z,17.80
2022-10-26T08:48:27.350Z,18.00
2022-10-26T08:53:40.461Z,18.20
2022-10-26T08:58:47.469Z,18.20
2022-10-26T09:08:54.914Z,18.90
2022-10-26T09:14:05.364Z,19.00
2022-10-26T09:19:30.459Z,19.20
2022-10-26T09:24:34.164Z,19.30
2022-10-26T09:34:53.809Z,19.70
2022-10-26T09:40:10.726Z,19.80
2022-10-26T09:45:18.738Z,19.90
2022-10-26T09:50:38.978Z,20.10
2022-10-26T09:55:45.059Z,20.10
2022-10-26T10:00:47.961Z,20.20
2022-10-26T10:05:51.760Z,20.30
2022-10-26T10:10:55.882Z,20.50
2022-10-26T10:16:14.505Z,20.80
2022-10-26T10:21:16.571Z,21.00
2022-10-26T10:26:18.701Z,21.40
2022-10-26T10:31:26.880Z,21.70
2022-10-26T10:36:30.298Z,21.80
2022-10-26T10:41:36.563Z,22.30
2022-10-26T10:46:38.976Z,22.40
2022-10-26T10:51:41.353Z,22.70
2022-10-26T10:56:53.152Z,22.90
2022-10-26T11:02:19.899Z,23.10
2022-10-26T11:07:24.225Z,23.10
2022-10-26T11:13:00.912Z,23.20
2022-10-26T11:18:14.141Z,23.20
2022-10-26T11:23:49.241Z,23.30
2022-10-26T11:29:28.878Z,23.30
2022-10-26T11:34:50.871Z,23.30
2022-10-26T11:40:03.976Z,23.30
2022-10-26T11:45:15.658Z,23.20
2022-10-26T11:50:29.400Z,23.20
2022-10-26T11:55:31.933Z,23.30
2022-10-26T12:00:34.556Z,23.40
2022-10-26T12:05:51.301Z,23.50
2022-10-26T12:16:21.878Z,23.60
2022-10-26T12:21:29.629Z,23.80
2022-10-26T12:26:34.593Z,24.00
2022-10-26T12:31:36.744Z,24.20
2022-10-26T12:37:11.377Z,24.40
2022-10-26T12:42:16.427Z,24.20
2022-10-26T12:47:30.691Z,24.80
2022-10-26T12:52:56.329Z,24.90
2022-10-26T12:58:32.512Z,25.00
2022-10-26T13:03:56.389Z,25.10
2022-10-26T13:09:00.129Z,25.50
2022-10-26T13:14:08.956Z,25.80
2022-10-26T13:19:38.145Z,26.10
2022-10-26T13:24:48.837Z,26.30
2022-10-26T13:30:09.442Z,26.30
2022-10-26T13:35:16.287Z,26.50
2022-10-26T13:40:22.001Z,26.50
2022-10-26T13:45:33.653Z,26.90
2022-10-26T13:50:53.598Z,27.20
2022-10-26T13:56:08.679Z,27.40
2022-10-26T14:01:11.584Z,27.50
2022-10-26T14:06:17.333Z,27.60
2022-10-26T14:11:30.919Z,27.70
2022-10-26T14:16:34.623Z,27.80
2022-10-26T14:21:40.477Z,27.80
2022-10-26T14:26:42.639Z,27.80
2022-10-26T14:31:44.642Z,27.70
2022-10-26T14:36:58.478Z,27.60
2022-10-26T14:42:08.268Z,27.30
2022-10-26T14:47:31.856Z,26.70
2022-10-26T14:52:36.496Z,26.50
2022-10-26T14:57:41.022Z,26.10
2022-10-26T15:02:49.108Z,25.90
2022-10-26T15:07:53.192Z,25.70
2022-10-26T15:12:55.542Z,25.50
2022-10-26T15:17:59.638Z,25.30
2022-10-26T15:23:03.505Z,25.10
2022-10-26T15:28:30.640Z,25.00
2022-10-26T15:33:34.679Z,24.70
2022-10-26T15:38:37.013Z,24.60
2022-10-26T15:43:39.132Z,24.30
2022-10-26T15:48:41.998Z,23.90
2022-10-26T15:53:44.121Z,23.60
2022-10-26T15:58:46.585Z,23.40
2022-10-26T16:03:49.033Z,23.40
2022-10-26T16:08:53.675Z,23.20
2022-10-26T16:19:29.331Z,22.90
2022-10-26T16:24:26.651Z,22.50
2022-10-26T16:29:29.749Z,22.40
2022-10-26T16:34:31.842Z,21.90
2022-10-26T16:39:33.961Z,21.70
2022-10-26T16:44:37.887Z,21.50
2022-10-26T16:49:43.145Z,21.30
2022-10-26T16:54:45.549Z,21.20
2022-10-26T17:04:50.300Z,20.90
2022-10-26T17:09:52.337Z,20.70
2022-10-26T17:14:56.127Z,20.70
2022-10-26T17:19:58.204Z,20.60
2022-10-26T17:35:05.557Z,20.20
2022-10-26T17:40:08.304Z,19.70
2022-10-26T17:45:10.484Z,19.90
2022-10-26T17:50:12.638Z,19.80
2022-10-26T17:55:14.788Z,19.70
2022-10-26T18:00:18.156Z,19.60
2022-10-26T18:05:20.208Z,19.60
2022-10-26T18:10:38.366Z,19.40
2022-10-26T18:15:40.813Z,19.30
2022-10-26T18:20:42.921Z,19.30
2022-10-26T18:25:45.072Z,19.20
2022-10-26T18:30:47.152Z,19.00
2022-10-26T18:35:49.248Z,19.00
2022-10-26T18:40:53.399Z,19.10
2022-10-26T18:46:06.664Z,18.90
2022-10-26T18:51:13.358Z,18.80
2022-10-26T18:56:21.163Z,18.80
2022-10-26T19:01:26.769Z,18.60
2022-10-26T19:06:31.761Z,18.40
2022-10-26T19:11:34.505Z,18.30
2022-10-26T19:16:52.398Z,18.20
2022-10-26T19:21:54.539Z,18.20
2022-10-26T19:31:59.599Z,17.80
2022-10-26T19:37:01.760Z,17.70
2022-10-26T19:42:03.893Z,17.80
2022-10-26T19:47:06.073Z,17.70
2022-10-26T19:52:08.200Z,17.40
2022-10-26T19:57:10.350Z,17.40
2022-10-26T20:02:12.364Z,17.40
2022-10-26T20:07:15.763Z,17.40
2022-10-26T20:12:17.881Z,17.40
2022-10-26T20:17:19.993Z,17.30
2022-10-26T20:22:22.119Z,17.30
2022-10-26T20:27:24.206Z,17.20
2022-10-26T20:32:26.250Z,17.10
2022-10-26T20:37:28.618Z,16.80
2022-10-26T20:42:30.884Z,16.90
2022-10-26T20:47:33.196Z,16.30
2022-10-26T20:52:56.584Z,16.60
2022-10-26T20:58:11.142Z,16.60
2022-10-26T21:03:13.256Z,16.50
2022-10-26T21:08:15.356Z,16.30
2022-10-26T21:13:17.812Z,16.40
2022-10-26T21:18:19.989Z,16.30
2022-10-26T21:23:22.051Z,16.20
2022-10-26T21:28:24.274Z,16.20
2022-10-26T21:33:31.868Z,16.20
2022-10-26T21:38:34.694Z,16.10
2022-10-26T21:43:38.484Z,16.00
2022-10-26T21:48:41.076Z,15.90
2022-10-26T21:53:44.075Z,15.90
2022-10-26T21:58:46.782Z,15.90
2022-10-26T22:03:49.175Z,16.10
2022-10-26T22:08:52.898Z,15.80
2022-10-26T22:13:55.199Z,15.70
2022-10-26T22:18:59.448Z,15.90
2022-10-26T22:29:04.518Z,15.50
2022-10-26T22:34:10.825Z,15.40
2022-10-26T22:39:12.953Z,15.50
2022-10-26T22:44:14.973Z,15.20
2022-10-26T22:49:17.125Z,15.10
2022-10-26T22:54:19.814Z,15.10
2022-10-26T22:59:21.794Z,14.90
2022-10-26T23:09:26.312Z,14.80
2022-10-26T23:14:28.365Z,14.70
2022-10-26T23:19:30.421Z,14.60
2022-10-26T23:24:32.462Z,14.60
2022-10-26T23:29:34.516Z,14.40
2022-10-26T23:34:36.614Z,14.40
2022-10-26T23:39:38.642Z,14.30
2022-10-26T23:44:40.722Z,14.30
2022-10-26T23:49:42.730Z,13.80
2022-10-26T23:54:44.815Z,14.20
